createdAt,value
2022-09-18T00:01:10.046Z,2.20
2022-09-18T00:03:36.941Z,2.30
2022-09-18T00:06:12.256Z,2.37
2022-09-18T00:08:39.941Z,2.20
2022-09-18T00:11:08.192Z,2.37
2022-09-18T00:13:37.378Z,2.40
2022-09-18T00:16:05.160Z,2.07
2022-09-18T00:18:32.644Z,2.30
2022-09-18T00:21:05.567Z,2.40
2022-09-18T00:23:32.670Z,2.47
2022-09-18T00:25:59.431Z,2.70
2022-09-18T00:28:26.606Z,2.40
2022-09-18T00:30:53.939Z,2.30
2022-09-18T00:33:20.887Z,2.00
2022-09-18T00:35:47.670Z,2.30
2022-09-18T00:38:14.426Z,2.83
2022-09-18T00:40:41.456Z,3.30
2022-09-18T00:43:26.671Z,2.60
2022-09-18T00:46:01.844Z,2.60
2022-09-18T00:48:40.408Z,2.53
2022-09-18T00:51:07.536Z,2.80
2022-09-18T00:53:36.746Z,2.70
2022-09-18T00:56:04.906Z,2.20
2022-09-18T00:58:32.127Z,2.30
2022-09-18T01:01:02.232Z,3.10
2022-09-18T01:03:30.041Z,2.17
2022-09-18T01:06:19.561Z,2.00
2022-09-18T01:08:51.995Z,2.87
2022-09-18T01:11:27.191Z,2.60
2022-09-18T01:13:57.788Z,2.33
2022-09-18T01:16:24.947Z,2.53
2022-09-18T01:19:12.132Z,2.33
2022-09-18T01:21:47.199Z,2.67
2022-09-18T01:24:16.842Z,2.70
2022-09-18T01:26:44.194Z,2.50
2022-09-18T01:29:33.763Z,2.83
2022-09-18T01:32:12.972Z,2.50
2022-09-18T01:35:09.365Z,3.50
2022-09-18T01:37:40.269Z,2.87
2022-09-18T01:40:29.010Z,2.60
2022-09-18T01:43:00.432Z,2.33
2022-09-18T01:45:32.897Z,2.30
2022-09-18T01:48:14.575Z,2.40
2022-09-18T01:50:51.966Z,2.20
2022-09-18T01:53:24.364Z,2.03
2022-09-18T01:56:07.511Z,2.33
2022-09-18T01:58:35.296Z,1.90
2022-09-18T02:01:09.549Z,1.80
2022-09-18T02:03:42.020Z,1.97
2022-09-18T02:06:13.886Z,1.97
2022-09-18T02:08:43.369Z,2.00
2022-09-18T02:11:13.026Z,2.10
2022-09-18T02:13:54.917Z,1.90
2022-09-18T02:16:35.224Z,1.93
2022-09-18T02:19:10.891Z,2.03
2022-09-18T02:21:39.333Z,2.20
2022-09-18T02:24:09.176Z,1.70
2022-09-18T02:26:42.239Z,2.30
2022-09-18T02:29:12.325Z,2.10
2022-09-18T02:31:39.791Z,2.40
2022-09-18T02:34:08.689Z,2.10
2022-09-18T02:36:38.412Z,1.93
2022-09-18T02:39:23.649Z,2.20
2022-09-18T02:42:08.933Z,2.50
2022-09-18T02:44:47.184Z,2.00
2022-09-18T02:47:51.273Z,2.63
2022-09-18T02:51:03.507Z,2.50
2022-09-18T02:54:04.986Z,2.20
2022-09-18T02:56:37.213Z,2.60
2022-09-18T02:59:15.488Z,2.73
2022-09-18T03:01:45.060Z,2.80
2022-09-18T03:04:15.298Z,2.97
2022-09-18T03:06:42.125Z,2.60
2022-09-18T03:09:09.261Z,3.33
2022-09-18T03:11:37.097Z,3.07
2022-09-18T03:14:04.173Z,3.23
2022-09-18T03:16:31.337Z,3.00
2022-09-18T03:18:58.092Z,3.30
2022-09-18T03:21:24.795Z,3.20
2022-09-18T03:23:51.909Z,3.30
2022-09-18T03:26:19.010Z,2.87
2022-09-18T03:28:45.746Z,3.00
2022-09-18T03:31:12.855Z,2.90
2022-09-18T03:33:39.974Z,3.07
2022-09-18T03:36:06.843Z,2.73
2022-09-18T03:38:34.151Z,2.70
2022-09-18T03:41:00.979Z,2.87
2022-09-18T03:43:28.102Z,2.83
2022-09-18T03:45:54.723Z,3.40
2022-09-18T03:48:21.797Z,2.43
2022-09-18T03:50:49.203Z,2.53
2022-09-18T03:53:16.314Z,2.10
2022-09-18T03:55:43.458Z,2.30
2022-09-18T03:58:10.560Z,2.47
2022-09-18T04:00:37.174Z,2.00
2022-09-18T04:03:04.199Z,2.43
2022-09-18T04:05:31.283Z,2.57
2022-09-18T04:07:57.965Z,2.47
2022-09-18T04:10:26.513Z,2.30
2022-09-18T04:12:53.700Z,2.40
2022-09-18T04:15:20.799Z,2.50
2022-09-18T04:17:47.908Z,2.30
2022-09-18T04:20:15.188Z,2.33
2022-09-18T04:22:41.942Z,2.57
2022-09-18T04:25:09.191Z,2.03
2022-09-18T04:27:36.331Z,2.30
2022-09-18T04:30:03.473Z,2.10
2022-09-18T04:32:30.102Z,2.30
2022-09-18T04:34:56.711Z,2.33
2022-09-18T04:37:23.753Z,2.50
2022-09-18T04:39:50.398Z,2.50
2022-09-18T04:42:17.438Z,2.40
2022-09-18T04:44:44.781Z,2.40
2022-09-18T04:47:11.827Z,2.10
2022-09-18T04:49:38.894Z,2.70
2022-09-18T04:52:05.982Z,2.50
2022-09-18T04:54:32.751Z,2.70
2022-09-18T04:56:59.821Z,2.77
2022-09-18T04:59:26.855Z,2.90
2022-09-18T05:01:53.590Z,2.50
2022-09-18T05:04:20.759Z,3.13
2022-09-18T05:06:47.374Z,3.00
2022-09-18T05:09:14.480Z,3.10
2022-09-18T05:11:41.239Z,3.00
2022-09-18T05:14:08.658Z,3.00
2022-09-18T05:16:35.399Z,3.10
2022-09-18T05:19:02.491Z,3.90
2022-09-18T05:21:29.538Z,3.13
2022-09-18T05:23:56.593Z,3.60
2022-09-18T05:26:23.274Z,3.50
2022-09-18T05:28:50.486Z,3.90
2022-09-18T05:31:17.832Z,3.40
2022-09-18T05:33:45.064Z,3.13
2022-09-18T05:36:11.788Z,2.90
2022-09-18T05:38:38.580Z,3.00
2022-09-18T05:41:05.440Z,2.40
2022-09-18T05:43:32.493Z,3.00
2022-09-18T05:46:01.027Z,2.50
2022-09-18T05:48:27.695Z,2.30
2022-09-18T05:50:54.768Z,2.50
2022-09-18T05:53:21.855Z,2.27
2022-09-18T05:55:48.838Z,2.30
2022-09-18T05:58:17.735Z,2.50
2022-09-18T06:00:45.299Z,2.20
2022-09-18T06:03:14.496Z,2.30
2022-09-18T06:05:42.171Z,2.43
2022-09-18T06:08:11.133Z,1.80
2022-09-18T06:10:39.890Z,2.03
2022-09-18T06:13:15.634Z,2.10
2022-09-18T06:15:52.094Z,2.07
2022-09-18T06:18:18.927Z,2.20
2022-09-18T06:20:53.359Z,1.90
2022-09-18T06:23:20.587Z,2.07
2022-09-18T06:25:47.338Z,2.00
2022-09-18T06:28:14.464Z,1.70
2022-09-18T06:30:41.108Z,1.70
2022-09-18T06:33:10.333Z,1.97
2022-09-18T06:35:40.187Z,2.10
2022-09-18T06:38:07.678Z,1.80
2022-09-18T06:40:35.690Z,2.20
2022-09-18T06:43:03.369Z,2.73
2022-09-18T06:45:31.136Z,2.23
2022-09-18T06:48:04.704Z,2.17
2022-09-18T06:50:31.910Z,1.90
2022-09-18T06:53:03.569Z,2.23
2022-09-18T06:55:31.750Z,2.10
2022-09-18T06:57:59.584Z,1.90
2022-09-18T07:00:27.895Z,1.90
2022-09-18T07:03:02.350Z,2.63
2022-09-18T07:05:30.969Z,2.30
2022-09-18T07:07:57.595Z,2.23
2022-09-18T07:10:24.723Z,2.40
2022-09-18T07:12:58.983Z,2.20
2022-09-18T07:15:26.640Z,2.40
2022-09-18T07:17:56.616Z,5.27
2022-09-18T07:20:23.689Z,2.50
2022-09-18T07:22:58.650Z,2.63
2022-09-18T07:25:31.269Z,2.10
2022-09-18T07:28:09.025Z,2.13
2022-09-18T07:30:39.813Z,3.10
2022-09-18T07:33:08.513Z,1.90
2022-09-18T07:35:35.836Z,1.90
2022-09-18T07:38:05.838Z,1.93
2022-09-18T07:40:33.132Z,1.73
2022-09-18T07:43:05.164Z,2.00
2022-09-18T07:45:32.544Z,2.37
2022-09-18T07:48:04.026Z,2.03
2022-09-18T07:50:30.854Z,1.87
2022-09-18T07:52:59.878Z,2.07
2022-09-18T07:55:28.317Z,1.80
2022-09-18T07:58:04.513Z,2.17
2022-09-18T08:00:34.879Z,2.63
2022-09-18T08:03:13.019Z,2.00
2022-09-18T08:05:41.608Z,1.80
2022-09-18T08:08:12.860Z,2.00
2022-09-18T08:10:41.202Z,1.77
2022-09-18T08:13:08.135Z,1.97
2022-09-18T08:15:37.656Z,1.77
2022-09-18T08:18:05.154Z,1.83
2022-09-18T08:20:32.518Z,1.70
2022-09-18T08:22:59.584Z,1.90
2022-09-18T08:25:27.401Z,1.80
2022-09-18T08:27:54.118Z,1.80
2022-09-18T08:30:20.801Z,2.80
2022-09-18T08:32:48.035Z,1.70
2022-09-18T08:35:15.370Z,1.80
2022-09-18T08:37:48.931Z,1.40
2022-09-18T08:40:17.915Z,1.40
2022-09-18T08:43:15.467Z,1.70
2022-09-18T08:46:00.528Z,1.40
2022-09-18T08:48:36.608Z,1.53
2022-09-18T08:51:17.423Z,1.40
2022-09-18T08:53:49.075Z,1.57
2022-09-18T08:56:20.879Z,1.53
2022-09-18T08:59:00.431Z,1.30
2022-09-18T09:01:46.504Z,1.50
2022-09-18T09:04:31.116Z,1.80
2022-09-18T09:07:36.041Z,1.70
2022-09-18T09:10:07.085Z,1.70
2022-09-18T09:12:54.708Z,2.07
2022-09-18T09:15:33.675Z,1.80
2022-09-18T09:18:29.687Z,2.07
2022-09-18T09:20:58.565Z,2.30
2022-09-18T09:23:46.717Z,1.70
2022-09-18T09:26:17.250Z,2.60
2022-09-18T09:29:03.840Z,2.50
2022-09-18T09:31:46.741Z,2.57
2022-09-18T09:34:18.837Z,2.77
2022-09-18T09:36:49.518Z,3.00
2022-09-18T09:39:53.706Z,3.27
2022-09-18T09:42:39.627Z,2.60
2022-09-18T09:45:24.662Z,3.20
2022-09-18T09:48:32.377Z,2.37
2022-09-18T09:51:14.175Z,2.20
2022-09-18T09:53:41.143Z,2.93
2022-09-18T09:56:52.118Z,2.20
2022-09-18T09:59:34.952Z,2.70
2022-09-18T10:02:23.078Z,2.20
2022-09-18T10:05:13.900Z,2.20
2022-09-18T10:07:49.446Z,2.10
2022-09-18T10:10:41.262Z,2.10
2022-09-18T10:13:36.062Z,1.90
2022-09-18T10:16:30.418Z,2.00
2022-09-18T10:18:59.411Z,2.00
2022-09-18T10:21:28.999Z,2.13
2022-09-18T10:24:33.397Z,2.00
2022-09-18T10:27:07.464Z,1.90
2022-09-18T10:29:36.049Z,1.93
2022-09-18T10:32:03.258Z,1.73
2022-09-18T10:34:45.896Z,1.90
2022-09-18T10:37:30.342Z,1.80
2022-09-18T10:39:59.934Z,1.77
2022-09-18T10:42:29.204Z,2.30
2022-09-18T10:45:01.948Z,1.80
2022-09-18T10:47:29.403Z,1.50
2022-09-18T10:50:11.360Z,1.63
2022-09-18T10:52:44.756Z,1.50
2022-09-18T10:55:20.660Z,1.77
2022-09-18T10:58:04.928Z,1.90
2022-09-18T11:00:36.925Z,1.70
2022-09-18T11:03:37.807Z,1.70
2022-09-18T11:06:23.964Z,1.60
2022-09-18T11:08:54.513Z,1.43
2022-09-18T11:11:21.176Z,1.90
2022-09-18T11:14:01.043Z,1.50
2022-09-18T11:16:41.782Z,1.50
2022-09-18T11:19:12.607Z,1.93
2022-09-18T11:21:55.087Z,1.60
2022-09-18T11:24:32.824Z,1.57
2022-09-18T11:27:01.396Z,1.40
2022-09-18T11:29:33.631Z,1.30
2022-09-18T11:32:17.152Z,1.60
2022-09-18T11:34:49.737Z,1.40
2022-09-18T11:37:39.450Z,1.43
2022-09-18T11:40:22.520Z,1.50
2022-09-18T11:42:52.344Z,1.60
2022-09-18T11:45:43.122Z,1.60
2022-09-18T11:48:17.951Z,1.50
2022-09-18T11:50:46.623Z,1.53
2022-09-18T11:53:26.112Z,1.73
2022-09-18T11:56:35.248Z,1.50
2022-09-18T11:59:09.444Z,1.70
2022-09-18T12:01:47.433Z,1.90
2022-09-18T12:04:21.516Z,1.90
2022-09-18T12:07:03.113Z,1.90
2022-09-18T12:09:42.808Z,1.90
2022-09-18T12:12:38.090Z,1.70
2022-09-18T12:15:13.746Z,1.83
2022-09-18T12:18:06.873Z,2.30
2022-09-18T12:20:40.780Z,2.10
2022-09-18T12:23:18.848Z,1.90
2022-09-18T12:26:19.300Z,2.20
2022-09-18T12:29:13.828Z,1.97
2022-09-18T12:32:03.824Z,1.80
2022-09-18T12:34:49.715Z,1.80
2022-09-18T12:37:25.474Z,1.70
2022-09-18T12:40:28.951Z,1.90
2022-09-18T12:43:16.023Z,2.13
2022-09-18T12:46:10.809Z,2.63
2022-09-18T12:48:40.469Z,2.03
2022-09-18T12:51:35.847Z,2.30
2022-09-18T12:54:39.681Z,1.87
2022-09-18T12:57:30.592Z,2.37
2022-09-18T13:00:14.882Z,2.10
2022-09-18T13:02:51.446Z,2.40
2022-09-18T13:05:33.358Z,1.40
2022-09-18T13:08:11.159Z,1.20
2022-09-18T13:10:43.560Z,1.50
2022-09-18T13:13:25.454Z,1.93
2022-09-18T13:16:14.684Z,1.40
2022-09-18T13:18:59.704Z,1.60
2022-09-18T13:21:35.759Z,1.30
2022-09-18T13:24:03.619Z,2.00
2022-09-18T13:26:36.975Z,1.90
2022-09-18T13:29:04.168Z,2.03
2022-09-18T13:31:33.528Z,1.83
2022-09-18T13:34:06.598Z,2.00
2022-09-18T13:36:36.701Z,2.20
2022-09-18T13:39:21.226Z,3.63
2022-09-18T13:41:50.675Z,3.63
2022-09-18T13:44:35.347Z,3.40
2022-09-18T13:47:15.586Z,2.70
2022-09-18T13:49:58.343Z,2.60
2022-09-18T13:52:34.021Z,2.67
2022-09-18T13:55:12.752Z,3.00
2022-09-18T13:57:40.947Z,3.50
2022-09-18T14:00:20.055Z,3.80
2022-09-18T14:02:47.318Z,3.50
2022-09-18T14:05:34.498Z,3.47
2022-09-18T14:08:04.608Z,3.40
2022-09-18T14:10:36.384Z,3.20
2022-09-18T14:13:12.205Z,3.07
2022-09-18T14:15:38.890Z,2.70
2022-09-18T14:18:21.098Z,2.77
2022-09-18T14:20:55.259Z,2.40
2022-09-18T14:23:34.404Z,2.13
2022-09-18T14:26:01.694Z,2.13
2022-09-18T14:28:29.541Z,1.87
2022-09-18T14:31:14.989Z,2.20
2022-09-18T14:33:43.528Z,3.20
2022-09-18T14:36:14.631Z,4.20
2022-09-18T14:38:41.849Z,5.40
2022-09-18T14:41:28.546Z,4.40
2022-09-18T14:44:00.978Z,3.10
2022-09-18T14:46:28.489Z,12.43
2022-09-18T14:48:55.865Z,3.37
2022-09-18T14:51:25.479Z,6.27
2022-09-18T14:53:54.430Z,4.40
2022-09-18T14:56:33.730Z,3.40
2022-09-18T14:59:14.037Z,2.90
2022-09-18T15:01:40.923Z,2.50
2022-09-18T15:04:21.140Z,2.57
2022-09-18T15:06:53.889Z,2.90
2022-09-18T15:09:30.552Z,3.17
2022-09-18T15:12:04.964Z,4.10
2022-09-18T15:14:44.013Z,6.83
2022-09-18T15:17:20.572Z,7.50
2022-09-18T15:20:02.435Z,4.43
2022-09-18T15:22:30.326Z,4.77
2022-09-18T15:25:00.869Z,4.13
2022-09-18T15:27:28.809Z,4.40
2022-09-18T15:30:06.036Z,6.70
2022-09-18T15:32:38.553Z,5.50
2022-09-18T15:35:08.697Z,5.90
2022-09-18T15:37:38.172Z,5.17
2022-09-18T15:40:05.420Z,5.23
2022-09-18T15:42:51.510Z,4.53
2022-09-18T15:45:21.544Z,3.63
2022-09-18T15:47:48.973Z,3.10
2022-09-18T15:50:16.001Z,3.60
2022-09-18T15:52:48.249Z,2.43
2022-09-18T15:55:16.397Z,2.70
2022-09-18T15:57:51.760Z,2.80
2022-09-18T16:00:21.190Z,2.73
2022-09-18T16:02:59.546Z,3.47
2022-09-18T16:05:28.967Z,2.87
2022-09-18T16:07:57.812Z,3.57
2022-09-18T16:10:41.040Z,2.40
2022-09-18T16:13:14.307Z,2.30
2022-09-18T16:15:47.238Z,3.10
2022-09-18T16:18:16.642Z,2.33
2022-09-18T16:21:01.659Z,2.70
2022-09-18T16:23:51.399Z,2.13
2022-09-18T16:26:26.825Z,4.00
2022-09-18T16:29:00.233Z,2.23
2022-09-18T16:31:29.840Z,3.00
2022-09-18T16:34:02.255Z,2.70
2022-09-18T16:36:36.531Z,1.80
2022-09-18T16:39:07.794Z,2.27
2022-09-18T16:41:35.144Z,2.50
2022-09-18T16:44:04.122Z,1.93
2022-09-18T16:46:54.937Z,1.60
2022-09-18T16:49:45.506Z,1.70
2022-09-18T16:52:13.825Z,2.00
2022-09-18T16:54:40.921Z,1.90
2022-09-18T16:57:20.333Z,1.70
2022-09-18T16:59:49.485Z,1.70
2022-09-18T17:02:23.237Z,3.33
2022-09-18T17:04:52.240Z,2.07
2022-09-18T17:07:18.978Z,2.50
2022-09-18T17:09:46.070Z,2.10
2022-09-18T17:12:12.964Z,2.40
2022-09-18T17:14:41.283Z,1.77
2022-09-18T17:17:08.037Z,1.97
2022-09-18T17:19:35.276Z,3.20
2022-09-18T17:22:02.078Z,2.77
2022-09-18T17:24:29.195Z,1.90
2022-09-18T17:26:56.369Z,1.83
2022-09-18T17:29:23.016Z,2.20
2022-09-18T17:31:50.196Z,2.80
2022-09-18T17:34:18.817Z,3.50
2022-09-18T17:36:46.149Z,6.20
2022-09-18T17:39:13.216Z,4.97
2022-09-18T17:41:42.566Z,5.43
2022-09-18T17:44:09.310Z,4.30
2022-09-18T17:46:36.418Z,3.90
2022-09-18T17:49:03.318Z,3.60
2022-09-18T17:51:30.423Z,2.93
2022-09-18T17:53:59.236Z,2.90
2022-09-18T17:56:32.577Z,3.20
2022-09-18T17:59:01.944Z,3.30
2022-09-18T18:01:29.722Z,5.13
2022-09-18T18:03:57.239Z,5.90
2022-09-18T18:06:24.521Z,6.77
2022-09-18T18:08:51.546Z,6.03
2022-09-18T18:11:22.036Z,6.53
2022-09-18T18:13:49.878Z,6.20
2022-09-18T18:16:23.076Z,7.33
2022-09-18T18:18:51.211Z,6.13
2022-09-18T18:21:19.196Z,6.10
2022-09-18T18:23:46.540Z,5.63
2022-09-18T18:26:13.683Z,4.67
2022-09-18T18:28:41.545Z,4.43
2022-09-18T18:31:12.083Z,4.53
2022-09-18T18:33:41.013Z,4.03
2022-09-18T18:36:08.555Z,3.20
2022-09-18T18:38:35.648Z,3.20
2022-09-18T18:41:05.847Z,3.77
2022-09-18T18:43:37.634Z,4.10
2022-09-18T18:46:08.021Z,3.10
2022-09-18T18:48:36.785Z,3.47
2022-09-18T18:51:08.527Z,3.63
2022-09-18T18:53:38.748Z,3.87
2022-09-18T18:56:09.193Z,2.77
2022-09-18T18:58:36.625Z,2.63
2022-09-18T19:01:06.433Z,2.60
2022-09-18T19:03:54.733Z,2.60
2022-09-18T19:06:23.698Z,3.10
2022-09-18T19:08:55.967Z,3.47
2022-09-18T19:11:22.779Z,3.50
2022-09-18T19:13:51.030Z,3.70
2022-09-18T19:16:19.318Z,3.93
2022-09-18T19:18:51.257Z,3.43
2022-09-18T19:21:19.349Z,3.77
2022-09-18T19:23:50.173Z,4.40
2022-09-18T19:26:17.306Z,3.73
2022-09-18T19:28:44.462Z,4.10
2022-09-18T19:31:11.609Z,3.90
2022-09-18T19:33:39.449Z,3.63
2022-09-18T19:36:07.227Z,3.20
2022-09-18T19:38:36.299Z,2.97
2022-09-18T19:41:21.786Z,2.60
2022-09-18T19:43:48.684Z,2.23
2022-09-18T19:46:23.815Z,2.30
2022-09-18T19:48:51.276Z,2.40
2022-09-18T19:51:17.992Z,2.80
2022-09-18T19:53:44.672Z,2.10
2022-09-18T19:56:27.635Z,2.43
2022-09-18T19:58:58.627Z,2.50
2022-09-18T20:01:25.416Z,3.00
2022-09-18T20:03:53.687Z,2.80
2022-09-18T20:06:22.814Z,2.73
2022-09-18T20:08:50.112Z,2.70
2022-09-18T20:11:17.309Z,2.73
2022-09-18T20:13:44.383Z,2.57
2022-09-18T20:16:11.246Z,2.30
2022-09-18T20:18:38.407Z,2.10
2022-09-18T20:21:09.262Z,2.63
2022-09-18T20:23:36.715Z,2.60
2022-09-18T20:26:08.108Z,2.53
2022-09-18T20:28:36.296Z,2.60
2022-09-18T20:31:04.112Z,2.43
2022-09-18T20:33:31.362Z,2.50
2022-09-18T20:35:59.054Z,2.10
2022-09-18T20:38:30.523Z,2.20
2022-09-18T20:41:06.631Z,2.50
2022-09-18T20:43:34.040Z,2.57
2022-09-18T20:46:04.513Z,2.37
2022-09-18T20:48:35.661Z,2.50
2022-09-18T20:51:09.181Z,2.63
2022-09-18T20:53:41.380Z,2.77
2022-09-18T20:56:10.765Z,2.70
2022-09-18T20:58:42.104Z,2.57
2022-09-18T21:01:11.209Z,2.70
2022-09-18T21:03:39.460Z,2.70
2022-09-18T21:06:21.804Z,2.43
2022-09-18T21:08:50.077Z,2.80
2022-09-18T21:11:23.886Z,2.63
2022-09-18T21:13:56.569Z,2.50
2022-09-18T21:16:25.831Z,2.97
2022-09-18T21:18:53.820Z,2.67
2022-09-18T21:21:20.677Z,2.33
2022-09-18T21:23:54.275Z,2.60
2022-09-18T21:26:24.323Z,2.53
2022-09-18T21:28:57.584Z,2.60
2022-09-18T21:31:24.769Z,2.70
2022-09-18T21:33:52.942Z,3.00
2022-09-18T21:36:24.277Z,2.80
2022-09-18T21:38:52.718Z,2.87
2022-09-18T21:41:21.133Z,2.83
2022-09-18T21:43:51.000Z,2.60
2022-09-18T21:46:20.240Z,2.50
2022-09-18T21:48:48.325Z,2.87
2022-09-18T21:51:16.743Z,2.60
2022-09-18T21:53:44.146Z,2.93
2022-09-18T21:56:18.332Z,2.73
2022-09-18T21:58:46.659Z,2.33
2022-09-18T22:01:18.218Z,2.90
2022-09-18T22:03:53.153Z,2.60
2022-09-18T22:06:21.688Z,2.37
2022-09-18T22:08:50.134Z,2.83
2022-09-18T22:11:18.853Z,2.57
2022-09-18T22:13:46.796Z,3.10
2022-09-18T22:16:14.154Z,2.77
2022-09-18T22:18:41.539Z,2.60
2022-09-18T22:21:20.310Z,2.60
2022-09-18T22:23:55.602Z,2.90
2022-09-18T22:26:25.379Z,2.50
2022-09-18T22:28:53.847Z,2.80
2022-09-18T22:31:21.132Z,2.73
2022-09-18T22:33:48.973Z,3.07
2022-09-18T22:36:16.304Z,2.60
2022-09-18T22:38:42.955Z,2.83
2022-09-18T22:41:10.218Z,2.73
2022-09-18T22:43:37.424Z,2.50
2022-09-18T22:46:12.755Z,2.57
2022-09-18T22:48:39.883Z,2.90
2022-09-18T22:51:17.743Z,2.63
2022-09-18T22:53:52.304Z,2.40
2022-09-18T22:56:20.450Z,3.20
2022-09-18T22:58:47.600Z,2.70
2022-09-18T23:01:19.249Z,2.70
2022-09-18T23:03:47.230Z,3.27
2022-09-18T23:06:15.998Z,2.80
2022-09-18T23:08:43.689Z,2.67
2022-09-18T23:11:13.467Z,2.50
2022-09-18T23:13:41.626Z,2.70
2022-09-18T23:16:12.206Z,2.90
2022-09-18T23:18:39.864Z,2.90
2022-09-18T23:21:08.500Z,2.60
2022-09-18T23:23:37.166Z,3.27
2022-09-18T23:26:23.505Z,2.80
2022-09-18T23:28:51.349Z,2.80
2022-09-18T23:31:20.365Z,2.83
2022-09-18T23:33:50.142Z,3.07
2022-09-18T23:36:19.443Z,2.53
2022-09-18T23:38:46.270Z,2.80
2022-09-18T23:41:16.952Z,2.67
2022-09-18T23:43:47.758Z,2.73
2022-09-18T23:46:15.267Z,2.70
2022-09-18T23:48:42.377Z,2.97
2022-09-18T23:51:12.063Z,2.43
2022-09-18T23:53:39.888Z,2.60
2022-09-18T23:56:08.652Z,2.63
2022-09-18T23:58:35.929Z,2.80
